Time;durP1;ratioP1;P1;durP2;ratioP2;P2;SDS_P1;SDS_P2;PMS_P1;PMS_P2;Temp;Humidity;BMP_temperature;BMP_pressure;BME280_temperature;BME280_humidity;BME280_pressure;Samples;Min_cycle;Max_cycle;Signal;HPM_P1;HPM_P2
2023/11/19 00:02:18;;;;;;;4.73;2.23;;;;;;;5.67;99.07;101008.84;5036240;28;20939;-71
2023/11/19 00:04:45;;;;;;;2.47;1.17;;;;;;;5.64;99.18;101007.47;5036740;28;20487;-71
2023/11/19 00:07:13;;;;;;;2.27;0.73;;;;;;;5.59;98.75;100995.88;5036950;28;20526;-71
2023/11/19 00:09:39;;;;;;;3.40;1.57;;;;;;;5.59;98.26;100975.19;5036580;28;20448;-71
2023/11/19 00:12:07;;;;;;;3.10;1.17;;;;;;;5.57;98.77;100967.34;5036333;28;20489;-71
2023/11/19 00:14:34;;;;;;;3.60;1.87;;;;;;;5.58;99.28;100968.19;5035953;28;20459;-71
2023/11/19 00:17:03;;;;;;;5.23;2.00;;;;;;;5.62;99.35;100969.28;5036024;28;20443;-71
2023/11/19 00:19:30;;;;;;;2.60;1.30;;;;;;;5.64;98.55;100955.59;5036877;28;20451;-72
2023/11/19 00:21:57;;;;;;;3.80;1.10;;;;;;;5.59;98.81;100956.38;5036495;28;20950;-72
2023/11/19 00:24:23;;;;;;;3.50;1.40;;;;;;;5.59;99.41;100959.06;5035703;28;20490;-71
2023/11/19 00:26:50;;;;;;;4.00;1.33;;;;;;;5.60;99.48;100955.31;5035900;28;20995;-71
2023/11/19 00:29:18;;;;;;;2.73;1.07;;;;;;;5.70;99.37;100949.19;5035760;28;20442;-71
2023/11/19 00:31:45;;;;;;;3.77;1.30;;;;;;;5.71;99.49;100951.63;5036005;28;20538;-71
2023/11/19 00:34:13;;;;;;;2.67;1.20;;;;;;;5.68;99.71;100938.69;5035837;28;20452;-71
2023/11/19 00:36:40;;;;;;;2.90;1.10;;;;;;;5.72;99.38;100928.25;5036504;28;20443;-71
2023/11/19 00:39:06;;;;;;;3.47;1.27;;;;;;;5.77;99.28;100906.75;5035738;28;20486;-71
2023/11/19 00:41:33;;;;;;;2.83;1.20;;;;;;;5.83;98.78;100914.56;5036147;28;20445;-71
2023/11/19 00:44:00;;;;;;;5.90;2.30;;;;;;;5.85;97.92;100903.59;5035559;28;20900;-71
2023/11/19 00:46:26;;;;;;;3.93;1.33;;;;;;;5.83;98.26;100894.97;5034451;28;20888;-71
2023/11/19 00:48:53;;;;;;;3.33;1.53;;;;;;;5.82;98.47;100894.16;5035284;28;20478;-70
2023/11/19 00:51:21;;;;;;;3.13;1.13;;;;;;;5.84;98.84;100875.06;5035549;28;20852;-68
2023/11/19 00:53:47;;;;;;;2.63;1.17;;;;;;;5.83;98.89;100874.25;5035566;28;20459;-71
2023/11/19 00:56:14;;;;;;;4.87;1.07;;;;;;;5.86;98.35;100866.75;5035729;28;20843;-70
2023/11/19 00:58:41;;;;;;;3.07;1.40;;;;;;;5.88;98.33;100867.28;5036017;28;20447;-70
2023/11/19 01:01:07;;;;;;;2.33;0.93;;;;;;;5.83;98.82;100857.31;5035452;28;20467;-70
2023/11/19 01:03:34;;;;;;;3.67;1.23;;;;;;;5.81;98.75;100844.16;5063493;22;20498;-70
2023/11/19 01:06:02;;;;;;;3.27;0.97;;;;;;;5.85;98.67;100838.28;5055285;28;20442;-69
2023/11/19 01:08:30;;;;;;;2.43;1.10;;;;;;;5.85;98.44;100832.88;5055385;28;20438;-69
2023/11/19 01:10:57;;;;;;;3.80;1.43;;;;;;;5.86;97.62;100802.25;5054721;28;20438;-69
2023/11/19 01:13:24;;;;;;;3.33;1.20;;;;;;;5.91;97.18;100803.06;5055266;28;20541;-69
2023/11/19 01:15:51;;;;;;;4.27;1.60;;;;;;;5.92;97.06;100811.97;5054604;28;20537;-69
2023/11/19 01:18:17;;;;;;;5.13;2.70;;;;;;;5.89;96.31;100801.69;5055087;28;20440;-69
2023/11/19 01:20:44;;;;;;;3.30;1.03;;;;;;;5.88;96.36;100800.09;5054830;28;20438;-69
2023/11/19 01:23:11;;;;;;;3.70;1.10;;;;;;;5.94;95.99;100793.69;5054723;28;20481;-69
2023/11/19 01:25:39;;;;;;;3.70;1.70;;;;;;;5.94;95.58;100786.44;5054748;28;20486;-69
2023/11/19 01:28:05;;;;;;;3.27;1.20;;;;;;;5.93;95.70;100786.69;5054691;28;20976;-69
2023/11/19 01:30:32;;;;;;;2.50;0.77;;;;;;;5.90;95.13;100777.25;5054712;28;20431;-69
2023/11/19 01:32:59;;;;;;;5.30;1.43;;;;;;;5.94;95.15;100777.56;5054504;28;20491;-69
2023/11/19 01:35:25;;;;;;;3.47;1.40;;;;;;;5.91;95.04;100759.25;5055007;28;20438;-70
2023/11/19 01:37:52;;;;;;;2.70;1.07;;;;;;;5.90;95.43;100744.19;5054347;28;20435;-69
2023/11/19 01:40:22;;;;;;;3.10;1.30;;;;;;;5.94;94.75;100726.50;5054185;28;20993;-70
2023/11/19 01:42:50;;;;;;;3.30;1.73;;;;;;;5.91;95.33;100738.53;5054745;28;20449;-70
2023/11/19 01:45:28;;;;;;;6.43;1.30;;;;;;;5.94;95.72;100724.63;5054678;28;20490;-70
2023/11/19 01:47:55;;;;;;;4.57;1.23;;;;;;;6.02;95.63;100720.56;5054683;28;20918;-70
2023/11/19 01:50:24;;;;;;;4.33;1.43;;;;;;;6.03;95.79;100714.13;5054376;28;20866;-70
2023/11/19 01:52:51;;;;;;;2.70;1.10;;;;;;;6.06;95.45;100702.81;5054357;28;20537;-70
2023/11/19 01:55:18;;;;;;;3.23;0.83;;;;;;;6.08;96.05;100695.31;5054385;28;20458;-69
2023/11/19 01:57:45;;;;;;;2.67;0.90;;;;;;;6.04;97.23;100700.41;5053600;28;21005;-70
2023/11/19 02:00:14;;;;;;;3.37;1.30;;;;;;;5.99;98.86;100689.66;5054259;28;20485;-70
2023/11/19 02:02:41;;;;;;;6.80;1.23;;;;;;;5.95;99.56;100677.03;5054354;28;20454;-70
2023/11/19 02:05:08;;;;;;;3.53;1.73;;;;;;;5.91;99.25;100662.47;5053951;28;20486;-70
2023/11/19 02:07:35;;;;;;;2.37;0.93;;;;;;;5.93;98.59;100661.16;5053781;28;20448;-70
2023/11/19 02:10:01;;;;;;;9.00;1.73;;;;;;;5.86;100.00;100638.28;5054089;28;20529;-70
2023/11/19 02:12:29;;;;;;;2.73;1.03;;;;;;;5.85;99.81;100629.41;5054023;28;20438;-70
2023/11/19 02:14:55;;;;;;;2.80;1.33;;;;;;;5.84;99.75;100600.91;5054350;28;20455;-70
2023/11/19 02:17:32;;;;;;;3.20;0.90;;;;;;;5.77;100.00;100601.19;5054461;28;20529;-70
2023/11/19 02:19:59;;;;;;;3.67;1.60;;;;;;;5.78;100.00;100608.16;5053935;28;20424;-70
2023/11/19 02:22:26;;;;;;;2.07;0.73;;;;;;;5.80;99.48;100611.41;5053964;28;20470;-70
2023/11/19 02:25:00;;;;;;;2.13;0.70;;;;;;;5.83;99.48;100613.53;5053947;28;20919;-70
2023/11/19 02:27:34;;;;;;;3.03;1.00;;;;;;;5.79;99.12;100604.38;5054043;28;20446;-70
2023/11/19 02:30:06;;;;;;;2.60;1.00;;;;;;;5.83;99.25;100594.72;5054342;28;20420;-70
2023/11/19 02:32:32;;;;;;;4.30;1.73;;;;;;;5.86;99.14;100598.75;5054094;28;20913;-70
2023/11/19 02:34:59;;;;;;;2.10;0.70;;;;;;;5.88;99.05;100590.41;5054168;28;20508;-71
2023/11/19 02:37:26;;;;;;;6.57;1.43;;;;;;;5.88;98.40;100585.03;5053667;28;20884;-71
2023/11/19 02:39:52;;;;;;;5.40;1.23;;;;;;;5.87;98.60;100578.06;5054878;28;20533;-70
2023/11/19 02:42:19;;;;;;;3.97;1.87;;;;;;;5.85;99.37;100575.66;5054286;28;20481;-70
2023/11/19 02:44:46;;;;;;;2.70;1.20;;;;;;;5.89;98.71;100570.53;5053743;28;20536;-70
2023/11/19 02:47:14;;;;;;;3.83;1.40;;;;;;;5.88;98.97;100564.34;5053884;28;20442;-70
2023/11/19 02:49:40;;;;;;;3.37;1.53;;;;;;;5.84;98.85;100549.81;5054152;28;20448;-69
2023/11/19 02:52:10;;;;;;;2.57;1.13;;;;;;;5.80;99.86;100530.78;5053783;28;20438;-69
2023/11/19 02:54:36;;;;;;;6.17;1.13;;;;;;;5.89;99.53;100514.06;5053992;28;20454;-70
2023/11/19 02:57:04;;;;;;;2.43;0.63;;;;;;;5.88;100.00;100512.47;5054327;28;20532;-70
2023/11/19 02:59:38;;;;;;;2.30;0.70;;;;;;;5.92;99.78;100543.13;5054177;28;20507;-70
2023/11/19 03:02:06;;;;;;;3.40;1.17;;;;;;;5.97;99.06;100530.50;5053870;28;20777;-70
2023/11/19 03:04:34;;;;;;;2.70;0.63;;;;;;;5.95;99.07;100532.66;5054176;28;20485;-70
2023/11/19 03:07:01;;;;;;;2.43;1.00;;;;;;;6.01;98.78;100538.81;5054407;28;20533;-70
2023/11/19 03:09:29;;;;;;;2.00;0.60;;;;;;;6.04;97.91;100532.91;5055505;28;20442;-70
2023/11/19 03:11:55;;;;;;;2.53;0.67;;;;;;;6.03;98.29;100534.00;5058433;28;20480;-70
2023/11/19 03:14:22;;;;;;;2.10;0.73;;;;;;;6.03;98.58;100528.63;5058450;28;20537;-70
2023/11/19 03:16:50;;;;;;;2.50;1.10;;;;;;;6.03;99.02;100537.50;5058341;28;20445;-70
2023/11/19 03:19:17;;;;;;;3.73;1.37;;;;;;;6.00;100.00;100521.09;5057917;28;20916;-70
2023/11/19 03:21:45;;;;;;;3.43;0.80;;;;;;;5.94;100.00;100509.56;5058550;28;20437;-70
2023/11/19 03:24:15;;;;;;;7.03;1.23;;;;;;;5.91;100.00;100506.56;5058082;28;20861;-69
2023/11/19 03:26:42;;;;;;;2.80;1.00;;;;;;;5.86;100.00;100501.19;5059021;28;20495;-69
2023/11/19 03:29:09;;;;;;;3.23;1.20;;;;;;;5.75;100.00;100468.94;5058619;28;20441;-70
2023/11/19 03:31:36;;;;;;;1.97;0.60;;;;;;;5.70;100.00;100460.09;5058187;28;20426;-70
2023/11/19 03:34:02;;;;;;;4.83;0.90;;;;;;;5.66;100.00;100467.09;5058246;28;20497;-69
2023/11/19 03:36:33;;;;;;;3.40;1.13;;;;;;;5.65;100.00;100466.28;5058123;28;20529;-69
2023/11/19 03:39:03;;;;;;;2.23;0.80;;;;;;;5.57;100.00;100466.81;5057761;28;20430;-69
2023/11/19 03:41:29;;;;;;;2.37;0.73;;;;;;;5.56;100.00;100443.72;5057863;28;20466;-70
2023/11/19 03:43:57;;;;;;;2.80;0.87;;;;;;;5.49;100.00;100444.03;5057703;28;20945;-70
2023/11/19 03:46:23;;;;;;;1.90;0.53;;;;;;;5.49;100.00;100435.13;5057602;28;20572;-70
2023/11/19 03:48:51;;;;;;;2.53;0.90;;;;;;;5.45;100.00;100418.78;5057596;28;20430;-70
2023/11/19 03:51:18;;;;;;;2.10;0.90;;;;;;;5.46;100.00;100396.19;5057751;28;20438;-70
2023/11/19 03:53:44;;;;;;;2.30;1.07;;;;;;;5.44;100.00;100397.53;5057370;28;20521;-70
2023/11/19 03:56:13;;;;;;;1.90;0.40;;;;;;;5.47;100.00;100397.00;5057524;28;20466;-70
2023/11/19 03:58:40;;;;;;;2.23;1.07;;;;;;;5.43;100.00;100398.63;5057441;28;20438;-70
2023/11/19 04:01:11;;;;;;;2.20;0.70;;;;;;;5.45;100.00;100375.81;5057710;28;20521;-69
2023/11/19 04:03:38;;;;;;;3.10;0.80;;;;;;;5.42;100.00;100379.03;5056833;28;20522;-69
2023/11/19 04:06:05;;;;;;;3.17;1.33;;;;;;;5.41;100.00;100371.25;5057209;28;20488;-69
2023/11/19 04:08:32;;;;;;;2.77;1.00;;;;;;;5.34;100.00;100370.72;5056672;28;20437;-70
2023/11/19 04:10:58;;;;;;;2.80;1.00;;;;;;;5.36;100.00;100360.47;5057290;28;20533;-70
2023/11/19 04:13:26;;;;;;;2.33;0.60;;;;;;;5.39;100.00;100352.69;5056682;28;20541;-70
2023/11/19 04:15:53;;;;;;;2.40;0.93;;;;;;;5.39;100.00;100352.69;5056665;28;20517;-70
2023/11/19 04:18:19;;;;;;;2.93;0.80;;;;;;;5.34;100.00;100354.59;5056310;28;20450;-69
2023/11/19 04:20:46;;;;;;;1.90;0.50;;;;;;;5.33;100.00;100343.06;5056193;28;20520;-68
2023/11/19 04:23:13;;;;;;;2.43;0.73;;;;;;;5.31;100.00;100347.88;5056140;28;20438;-68
2023/11/19 04:25:39;;;;;;;2.40;0.77;;;;;;;5.35;100.00;100334.72;5056295;28;20524;-68
2023/11/19 04:28:06;;;;;;;2.00;0.50;;;;;;;5.35;100.00;100332.03;5056260;28;20438;-68
2023/11/19 04:30:35;;;;;;;2.30;0.80;;;;;;;5.36;100.00;100350.56;5056169;28;20481;-69
2023/11/19 04:33:02;;;;;;;3.70;0.83;;;;;;;5.37;100.00;100348.69;5055962;28;20438;-69
2023/11/19 04:35:28;;;;;;;2.37;1.10;;;;;;;5.41;100.00;100344.38;5055933;28;20447;-69
2023/11/19 04:37:57;;;;;;;3.53;1.20;;;;;;;5.40;100.00;100326.63;5055983;28;20496;-69
2023/11/19 04:40:23;;;;;;;2.97;0.90;;;;;;;5.41;100.00;100328.28;5056114;28;20507;-69
2023/11/19 04:42:50;;;;;;;3.30;1.00;;;;;;;5.41;100.00;100314.84;5055865;28;20533;-69
2023/11/19 04:45:17;;;;;;;2.60;1.00;;;;;;;5.37;100.00;100317.25;5055604;28;20496;-69
2023/11/19 04:47:45;;;;;;;3.23;0.90;;;;;;;5.36;100.00;100321.03;5056033;28;20488;-69
2023/11/19 04:50:11;;;;;;;2.00;0.60;;;;;;;5.36;100.00;100318.34;5055272;28;20435;-69
2023/11/19 04:52:40;;;;;;;2.93;1.17;;;;;;;5.41;100.00;100306.78;5055854;28;20556;-69
2023/11/19 04:55:07;;;;;;;3.70;0.67;;;;;;;5.39;100.00;100293.59;5055129;28;20454;-69
2023/11/19 04:57:34;;;;;;;2.17;0.77;;;;;;;5.40;100.00;100289.03;5056037;28;20533;-69
2023/11/19 05:00:00;;;;;;;2.30;0.83;;;;;;;5.39;100.00;100282.06;5055109;28;20797;-69
2023/11/19 05:02:27;;;;;;;2.20;0.60;;;;;;;5.37;100.00;100273.50;5055156;28;20533;-69
2023/11/19 05:04:55;;;;;;;2.20;0.73;;;;;;;5.37;100.00;100247.44;5055136;28;20536;-69
2023/11/19 05:07:22;;;;;;;1.90;0.60;;;;;;;5.41;100.00;100245.00;5055417;28;20651;-69
2023/11/19 05:09:48;;;;;;;2.20;0.80;;;;;;;5.44;100.00;100233.69;5055601;28;20505;-69
2023/11/19 05:12:15;;;;;;;2.30;0.70;;;;;;;5.42;100.00;100228.63;5054795;28;20442;-69
2023/11/19 05:14:47;;;;;;;3.90;1.10;;;;;;;5.45;100.00;100229.97;5054934;28;20537;-69
2023/11/19 05:17:14;;;;;;;3.17;1.00;;;;;;;5.43;100.00;100232.91;5055242;28;20426;-69
2023/11/19 05:19:41;;;;;;;1.90;0.50;;;;;;;5.43;100.00;100226.72;5054723;28;20525;-69
2023/11/19 05:22:09;;;;;;;2.53;0.80;;;;;;;5.46;100.00;100221.63;5054887;28;20442;-68
2023/11/19 05:24:35;;;;;;;2.10;0.80;;;;;;;5.44;100.00;100209.53;5054506;28;20879;-68
2023/11/19 05:27:02;;;;;;;2.17;0.73;;;;;;;5.45;100.00;100214.66;5054966;28;20989;-68
2023/11/19 05:29:29;;;;;;;2.00;0.60;;;;;;;5.45;100.00;100209.28;5055071;28;20477;-68
2023/11/19 05:31:56;;;;;;;1.90;0.50;;;;;;;5.43;100.00;100203.34;5054099;28;20980;-68
2023/11/19 05:34:22;;;;;;;2.00;0.70;;;;;;;5.39;100.00;100196.13;5054828;28;20472;-68
2023/11/19 05:36:49;;;;;;;1.87;0.47;;;;;;;5.40;100.00;100185.13;5054359;28;20524;-70
2023/11/19 05:39:18;;;;;;;3.00;1.90;;;;;;;5.41;100.00;100181.34;5054637;28;20443;-70
2023/11/19 05:41:45;;;;;;;1.80;0.40;;;;;;;5.43;100.00;100170.31;5054214;28;20446;-69
2023/11/19 05:44:12;;;;;;;2.50;1.10;;;;;;;5.42;100.00;100169.53;5054142;28;20489;-70
2023/11/19 05:46:42;;;;;;;2.23;0.90;;;;;;;5.45;100.00;100174.34;5054633;28;20555;-69
2023/11/19 05:49:09;;;;;;;2.00;0.53;;;;;;;5.49;100.00;100163.84;5054454;28;20894;-69
2023/11/19 05:51:38;;;;;;;2.30;0.97;;;;;;;5.53;100.00;100152.28;5054275;28;20450;-69
2023/11/19 05:54:06;;;;;;;2.27;0.60;;;;;;;5.50;100.00;100158.22;5054419;28;20970;-69
2023/11/19 05:56:34;;;;;;;4.27;0.93;;;;;;;5.52;100.00;100160.59;5054589;28;20446;-70
2023/11/19 05:59:03;;;;;;;2.00;0.70;;;;;;;5.52;100.00;100157.91;5054234;28;20443;-69
2023/11/19 06:01:30;;;;;;;2.10;0.70;;;;;;;5.54;100.00;100156.56;5054092;28;20442;-69
2023/11/19 06:03:56;;;;;;;6.77;1.47;;;;;;;5.55;100.00;100154.69;5053638;28;20480;-69
2023/11/19 06:06:23;;;;;;;1.90;0.60;;;;;;;5.57;100.00;100147.13;5054013;28;20494;-69
2023/11/19 06:08:50;;;;;;;2.17;0.70;;;;;;;5.61;100.00;100131.28;5053723;28;20513;-69
2023/11/19 06:11:20;;;;;;;2.60;0.70;;;;;;;5.59;100.00;100131.56;5054205;28;20469;-69
2023/11/19 06:13:50;;;;;;;2.30;0.93;;;;;;;5.62;100.00;100119.44;5054595;28;20463;-69
2023/11/19 06:16:16;;;;;;;3.13;1.17;;;;;;;5.64;100.00;100123.47;5053497;28;20438;-69
2023/11/19 06:18:43;;;;;;;1.93;0.50;;;;;;;5.66;100.00;100132.03;5053395;28;20960;-69
2023/11/19 06:21:10;;;;;;;2.73;0.90;;;;;;;5.69;100.00;100131.47;5053557;28;20926;-69
2023/11/19 06:23:37;;;;;;;2.20;0.80;;;;;;;5.73;100.00;100110.22;5054092;28;20502;-69
2023/11/19 06:26:05;;;;;;;2.93;1.13;;;;;;;5.72;100.00;100109.44;5053850;28;20544;-69
2023/11/19 06:28:31;;;;;;;1.90;0.60;;;;;;;5.73;100.00;100092.22;5053537;28;20442;-69
2023/11/19 06:30:59;;;;;;;3.23;0.90;;;;;;;5.70;100.00;100092.78;5053844;28;20473;-69
2023/11/19 06:33:27;;;;;;;2.23;0.60;;;;;;;5.67;100.00;100098.72;5053952;28;20521;-69
2023/11/19 06:35:54;;;;;;;2.63;1.17;;;;;;;5.74;100.00;100096.50;5053917;28;20525;-69
2023/11/19 06:38:21;;;;;;;2.10;0.60;;;;;;;5.76;100.00;100102.41;5053664;28;20434;-69
2023/11/19 06:40:47;;;;;;;2.53;0.93;;;;;;;5.75;100.00;100092.72;5054002;28;20469;-69
2023/11/19 06:43:15;;;;;;;3.13;0.77;;;;;;;5.75;100.00;100090.03;5053492;28;20481;-69
2023/11/19 06:45:42;;;;;;;2.00;0.50;;;;;;;5.77;100.00;100095.97;5053349;28;20486;-69
2023/11/19 06:48:10;;;;;;;2.30;0.73;;;;;;;5.79;100.00;100109.91;5053574;28;20509;-69
2023/11/19 06:50:37;;;;;;;1.90;0.47;;;;;;;5.81;100.00;100109.63;5053725;28;21012;-69
2023/11/19 06:53:05;;;;;;;2.37;0.70;;;;;;;5.88;100.00;100106.63;5053515;28;20446;-69
2023/11/19 06:55:31;;;;;;;1.90;0.60;;;;;;;5.92;100.00;100096.94;5053315;28;20525;-69
2023/11/19 06:58:00;;;;;;;1.97;0.70;;;;;;;5.88;100.00;100093.97;5053552;28;20501;-69
2023/11/19 07:00:27;;;;;;;2.00;0.60;;;;;;;5.86;100.00;100081.91;5053096;28;20872;-69
2023/11/19 07:02:53;;;;;;;2.63;0.90;;;;;;;5.90;100.00;100091.03;5067421;22;20601;-70
2023/11/19 07:05:21;;;;;;;2.10;0.60;;;;;;;5.94;100.00;100092.09;5052937;28;20524;-73
2023/11/19 07:07:48;;;;;;;2.40;0.90;;;;;;;5.94;100.00;100092.09;5053533;28;20438;-73
2023/11/19 07:10:15;;;;;;;2.10;0.70;;;;;;;5.93;100.00;100093.16;5053014;28;20982;-74
2023/11/19 07:12:42;;;;;;;3.43;1.30;;;;;;;5.94;100.00;100092.09;5052951;28;20812;-74
2023/11/19 07:15:09;;;;;;;2.13;0.70;;;;;;;5.96;100.00;100090.72;5053333;28;20463;-74
2023/11/19 07:17:36;;;;;;;2.70;0.80;;;;;;;5.96;100.00;100095.28;5053212;28;20522;-72
2023/11/19 07:20:05;;;;;;;2.87;1.00;;;;;;;6.02;100.00;100096.84;5053359;28;20525;-72
2023/11/19 07:22:33;;;;;;;1.90;0.53;;;;;;;6.05;100.00;100104.34;5052932;28;20488;-73
2023/11/19 07:25:01;;;;;;;3.40;1.13;;;;;;;6.03;100.00;100091.19;5053160;28;20454;-72
2023/11/19 07:27:27;;;;;;;2.30;0.93;;;;;;;6.01;100.00;100087.97;5053517;28;20494;-73
2023/11/19 07:29:54;;;;;;;2.40;1.10;;;;;;;6.08;100.00;100087.66;5053633;28;20469;-73
2023/11/19 07:32:21;;;;;;;2.73;0.90;;;;;;;6.10;100.00;100093.53;5053543;28;20633;-73
2023/11/19 07:34:47;;;;;;;2.40;0.60;;;;;;;6.12;100.00;100090.59;5053182;28;20541;-74
2023/11/19 07:37:14;;;;;;;2.20;0.83;;;;;;;6.13;100.00;100095.69;5053714;28;20522;-73
2023/11/19 07:39:42;;;;;;;2.43;1.13;;;;;;;6.13;100.00;100095.69;5053356;28;20563;-72
2023/11/19 07:42:09;;;;;;;2.27;0.90;;;;;;;6.10;100.00;100085.47;5052771;28;20450;-75
2023/11/19 07:44:36;;;;;;;2.40;0.83;;;;;;;6.20;100.00;100076.53;5052909;28;20519;-75
2023/11/19 07:47:03;;;;;;;3.53;1.43;;;;;;;6.22;100.00;100069.78;5052907;28;20494;-73
2023/11/19 07:49:30;;;;;;;3.07;0.60;;;;;;;6.24;100.00;100082.94;5052584;28;20470;-75
2023/11/19 07:51:57;;;;;;;1.97;0.60;;;;;;;6.32;100.00;100087.69;5052979;28;20450;-73
2023/11/19 07:54:24;;;;;;;3.60;0.90;;;;;;;6.41;100.00;100085.19;5053038;28;20462;-74
2023/11/19 07:56:51;;;;;;;2.10;0.60;;;;;;;6.46;100.00;100094.00;5056125;28;20866;-73
2023/11/19 07:59:18;;;;;;;2.13;0.90;;;;;;;6.58;100.00;100098.97;5056649;28;20517;-73
2023/11/19 08:01:45;;;;;;;2.37;0.57;;;;;;;6.62;100.00;100085.75;5056451;28;20525;-73
2023/11/19 08:04:12;;;;;;;2.50;0.90;;;;;;;6.67;100.00;100099.16;5055864;28;20856;-73
2023/11/19 08:06:38;;;;;;;2.20;0.70;;;;;;;6.68;100.00;100087.28;5056330;28;20486;-74
2023/11/19 08:09:06;;;;;;;2.30;0.80;;;;;;;6.72;100.00;100081.06;5056609;28;20464;-73
2023/11/19 08:11:33;;;;;;;1.90;0.60;;;;;;;6.78;100.00;100077.22;5056293;28;20438;-71
2023/11/19 08:14:01;;;;;;;2.10;0.80;;;;;;;6.85;100.00;100086.81;5056682;28;20508;-71
2023/11/19 08:16:27;;;;;;;2.00;0.60;;;;;;;6.91;100.00;100085.69;5056153;28;20462;-71
2023/11/19 08:18:54;;;;;;;3.63;1.27;;;;;;;6.97;100.00;100073.75;5056115;28;20438;-71
2023/11/19 08:21:22;;;;;;;2.43;1.20;;;;;;;7.01;100.00;100074.78;5056064;28;21010;-71
2023/11/19 08:23:49;;;;;;;2.00;0.60;;;;;;;7.06;100.00;100078.19;5056220;28;20474;-72
2023/11/19 08:26:16;;;;;;;2.40;0.77;;;;;;;7.09;100.00;100071.44;5055935;28;20517;-72
2023/11/19 08:28:42;;;;;;;2.00;0.60;;;;;;;7.14;100.00;100057.09;5056170;28;20445;-72
2023/11/19 08:31:10;;;;;;;2.53;1.03;;;;;;;7.20;100.00;100067.50;5056219;28;20521;-72
2023/11/19 08:33:37;;;;;;;2.70;1.13;;;;;;;7.23;100.00;100061.53;5055854;28;20545;-72
2023/11/19 08:36:04;;;;;;;2.70;0.90;;;;;;;7.30;100.00;100051.22;5056369;28;20438;-72
2023/11/19 08:38:31;;;;;;;2.53;1.00;;;;;;;7.34;100.00;100046.03;5055736;28;20449;-72
2023/11/19 08:40:59;;;;;;;2.20;0.70;;;;;;;7.47;100.00;100049.88;5055914;28;20538;-72
2023/11/19 08:43:26;;;;;;;3.07;0.80;;;;;;;7.50;100.00;100047.41;5055618;28;20466;-72
2023/11/19 08:45:52;;;;;;;4.20;1.30;;;;;;;7.52;100.00;100057.88;5055613;28;20522;-72
2023/11/19 08:48:20;;;;;;;2.57;0.90;;;;;;;7.53;100.00;100049.50;5055760;28;21010;-72
2023/11/19 08:50:47;;;;;;;2.20;0.87;;;;;;;7.52;100.00;100030.91;5055936;28;20926;-72
2023/11/19 08:53:14;;;;;;;2.30;0.90;;;;;;;7.54;100.00;100045.72;5055589;28;20443;-72
2023/11/19 08:55:41;;;;;;;2.10;0.70;;;;;;;7.61;100.00;100048.03;5055534;28;20811;-72
2023/11/19 08:58:07;;;;;;;2.70;1.00;;;;;;;7.64;100.00;100047.44;5055866;28;20522;-72
2023/11/19 09:00:34;;;;;;;2.50;0.83;;;;;;;7.72;100.00;100054.06;5055915;28;20438;-72
2023/11/19 09:03:01;;;;;;;2.37;0.83;;;;;;;7.80;100.00;100046.09;5055317;28;20544;-73
2023/11/19 09:05:29;;;;;;;3.20;1.17;;;;;;;7.81;100.00;100065.78;5054992;28;20847;-74
2023/11/19 09:07:56;;;;;;;2.90;1.23;;;;;;;7.86;100.00;100054.09;5054204;28;20517;-70
2023/11/19 09:10:22;;;;;;;3.00;0.97;;;;;;;7.90;100.00;100057.81;5055107;28;21001;-73
2023/11/19 09:12:49;;;;;;;2.57;0.70;;;;;;;7.98;100.00;100049.03;5055413;28;20444;-73
2023/11/19 09:15:16;;;;;;;2.00;0.60;;;;;;;8.03;100.00;100055.13;5054670;28;21043;-73
2023/11/19 09:17:43;;;;;;;4.17;1.03;;;;;;;8.05;100.00;100079.09;5054976;28;20939;-73
2023/11/19 09:20:12;;;;;;;2.60;0.70;;;;;;;8.13;100.00;100069.53;5055494;28;20470;-73
2023/11/19 09:22:40;;;;;;;2.20;0.70;;;;;;;8.19;100.00;100077.25;5055027;28;20529;-73
2023/11/19 09:25:07;;;;;;;2.20;0.70;;;;;;;8.26;100.00;100064.16;5055234;28;20541;-72
2023/11/19 09:27:34;;;;;;;2.10;0.60;;;;;;;8.31;100.00;100064.06;5055420;28;20513;-72
2023/11/19 09:30:01;;;;;;;2.50;0.60;;;;;;;8.37;100.00;100056.72;5054951;28;20474;-72
2023/11/19 09:32:27;;;;;;;3.80;1.20;;;;;;;8.41;100.00;100059.59;5054780;28;20434;-72
2023/11/19 09:34:54;;;;;;;2.90;0.80;;;;;;;8.40;100.00;100055.31;5054549;28;21044;-72
2023/11/19 09:37:21;;;;;;;2.10;0.63;;;;;;;8.41;100.00;100046.94;5054352;28;20474;-72
2023/11/19 09:39:49;;;;;;;2.10;0.50;;;;;;;8.49;100.00;100048.91;5054567;28;20446;-72
2023/11/19 09:42:15;;;;;;;2.80;0.73;;;;;;;8.57;100.00;100050.09;5054550;28;20488;-72
2023/11/19 09:44:43;;;;;;;2.27;0.70;;;;;;;8.70;100.00;100038.50;5054502;28;20494;-72
2023/11/19 09:47:12;;;;;;;2.10;0.60;;;;;;;8.79;100.00;100039.38;5054471;28;20518;-72
2023/11/19 09:49:39;;;;;;;2.00;0.60;;;;;;;8.86;100.00;100036.28;5054261;28;20496;-73
2023/11/19 09:52:06;;;;;;;2.40;0.70;;;;;;;8.99;100.00;100031.97;5054751;28;20457;-73
2023/11/19 09:54:33;;;;;;;2.40;0.70;;;;;;;9.09;100.00;100037.13;5054258;28;20454;-73
2023/11/19 09:57:03;;;;;;;2.00;0.60;;;;;;;9.17;100.00;100033.72;5053970;28;20439;-73
2023/11/19 09:59:30;;;;;;;2.07;0.53;;;;;;;9.25;100.00;100037.56;5054518;28;20442;-73
2023/11/19 10:01:57;;;;;;;2.67;0.83;;;;;;;9.31;100.00;100036.38;5054083;28;20446;-73
2023/11/19 10:04:25;;;;;;;2.50;0.90;;;;;;;9.42;100.00;100042.31;5053849;28;20462;-73
2023/11/19 10:06:53;;;;;;;2.53;0.90;;;;;;;9.45;100.00;100023.59;5054154;28;20577;-72
2023/11/19 10:09:19;;;;;;;2.17;0.73;;;;;;;9.49;100.00;100027.28;5054506;28;20443;-73
2023/11/19 10:11:46;;;;;;;2.40;0.80;;;;;;;9.49;100.00;100037.31;5054111;28;20537;-72
2023/11/19 10:14:15;;;;;;;2.00;0.60;;;;;;;9.50;100.00;100033.47;5054138;28;20481;-73
2023/11/19 10:16:42;;;;;;;2.40;0.50;;;;;;;9.56;100.00;100032.25;5054082;28;20430;-73
2023/11/19 10:19:13;;;;;;;2.23;0.70;;;;;;;9.65;100.00;100032.31;5054173;28;20447;-72
2023/11/19 10:21:40;;;;;;;2.87;0.73;;;;;;;9.74;100.00;100033.16;5053586;28;20461;-73
2023/11/19 10:24:06;;;;;;;2.00;0.60;;;;;;;9.88;100.00;100025.78;5053528;28;20641;-74
2023/11/19 10:26:34;;;;;;;2.50;0.73;;;;;;;10.07;100.00;100031.75;5053741;28;20517;-73
2023/11/19 10:29:01;;;;;;;2.10;0.70;;;;;;;10.35;100.00;100024.25;5054432;28;20445;-73
2023/11/19 10:31:29;;;;;;;2.40;0.63;;;;;;;10.52;100.00;100020.81;5053815;28;20442;-73
2023/11/19 10:33:56;;;;;;;2.90;1.30;;;;;;;10.70;100.00;100018.16;5035673;28;20476;-73
2023/11/19 10:36:23;;;;;;;2.53;0.87;;;;;;;10.77;100.00;100008.44;5053631;28;20511;-73
2023/11/19 10:38:54;;;;;;;2.50;0.80;;;;;;;10.93;100.00;100010.69;5053815;28;20537;-72
2023/11/19 10:41:31;;;;;;;4.43;0.80;;;;;;;11.02;100.00;100009.59;5053559;28;20527;-70
2023/11/19 10:43:57;;;;;;;2.10;0.60;;;;;;;11.15;100.00;100010.53;5053498;28;20472;-73
2023/11/19 10:46:39;;;;;;;2.27;0.70;;;;;;;11.23;100.00;100017.09;5053398;28;20446;-72
2023/11/19 10:49:06;;;;;;;2.20;0.70;;;;;;;11.26;100.00;100017.25;5053291;28;20796;-72
2023/11/19 10:51:33;;;;;;;2.40;1.10;;;;;;;11.24;100.00;100014.06;5053525;28;20442;-73
2023/11/19 10:54:05;;;;;;;2.20;0.67;;;;;;;11.26;100.00;100021.88;5053470;28;20471;-72
2023/11/19 10:56:33;;;;;;;2.50;0.83;;;;;;;11.28;100.00;100008.78;5053136;28;20466;-72
2023/11/19 10:59:01;;;;;;;2.83;0.80;;;;;;;11.29;100.00;100016.63;5053455;28;20872;-72
2023/11/19 11:01:34;;;;;;;2.50;0.67;;;;;;;11.27;100.00;100013.41;5053481;28;20463;-72
2023/11/19 11:04:03;;;;;;;2.30;0.70;;;;;;;11.43;100.00;100011.03;5053489;28;20999;-72
2023/11/19 11:06:31;;;;;;;2.50;0.87;;;;;;;11.60;100.00;100011.00;5053994;28;20466;-72
2023/11/19 11:08:59;;;;;;;3.50;1.30;;;;;;;11.74;100.00;100010.81;5053301;28;20442;-72
2023/11/19 11:11:26;;;;;;;2.03;0.70;;;;;;;11.90;100.00;100013.03;5053541;28;20930;-72
2023/11/19 11:13:55;;;;;;;2.33;0.80;;;;;;;11.94;100.00;100013.97;5053734;28;20553;-72
2023/11/19 11:16:24;;;;;;;2.20;0.67;;;;;;;12.15;100.00;100008.66;5053868;28;20835;-71
2023/11/19 11:18:52;;;;;;;2.70;0.93;;;;;;;12.32;100.00;100014.81;5053340;28;20484;-69
2023/11/19 11:21:24;;;;;;;4.90;1.17;;;;;;;12.63;100.00;100006.31;5053176;28;20526;-70
2023/11/19 11:24:20;;;;;;;8.60;1.40;;;;;;;13.48;100.00;100007.16;5053136;28;20561;-70
2023/11/19 11:27:04;;;;;;;2.30;0.90;;;;;;;14.37;97.20;100012.88;5039994;28;20497;-71
2023/11/19 11:29:41;;;;;;;2.70;1.00;;;;;;;14.95;92.75;100012.75;5053529;28;20469;-71